Map

Track Data

SID SEASON NUMBER BASIN SUBBASIN NAME ISO_TIME NATURE LAT LON WMO_WIND WMO_PRES WMO_AGENCY TRACK_TYPE DIST2LAND LANDFALL IFLAG USA_AGENCY USA_ATCF_ID USA_LAT USA_LON USA_RECORD USA_STATUS USA_WIND USA_PRES USA_SSHS USA_R34_NE USA_R34_SE USA_R34_SW USA_R34_NW USA_R50_NE USA_R50_SE USA_R50_SW USA_R50_NW USA_R64_NE USA_R64_SE USA_R64_SW USA_R64_NW USA_POCI USA_ROCI USA_RMW USA_EYE TOKYO_LAT TOKYO_LON TOKYO_GRADE TOKYO_WIND TOKYO_PRES TOKYO_R50_DIR TOKYO_R50_LONG TOKYO_R50_SHORT TOKYO_R30_DIR TOKYO_R30_LONG TOKYO_R30_SHORT TOKYO_LAND CMA_LAT CMA_LON CMA_CAT CMA_WIND CMA_PRES HKO_LAT HKO_LON HKO_CAT HKO_WIND HKO_PRES NEWDELHI_LAT NEWDELHI_LON NEWDELHI_GRADE NEWDELHI_WIND NEWDELHI_PRES NEWDELHI_CI NEWDELHI_DP NEWDELHI_POCI REUNION_LAT REUNION_LON REUNION_TYPE REUNION_WIND REUNION_PRES REUNION_TNUM REUNION_CI REUNION_RMW REUNION_R34_NE REUNION_R34_SE REUNION_R34_SW REUNION_R34_NW REUNION_R50_NE REUNION_R50_SE REUNION_R50_SW REUNION_R50_NW REUNION_R64_NE REUNION_R64_SE REUNION_R64_SW REUNION_R64_NW BOM_LAT BOM_LON BOM_TYPE BOM_WIND BOM_PRES BOM_TNUM BOM_CI BOM_RMW BOM_R34_NE BOM_R34_SE BOM_R34_SW BOM_R34_NW BOM_R50_NE BOM_R50_SE BOM_R50_SW BOM_R50_NW BOM_R64_NE BOM_R64_SE BOM_R64_SW BOM_R64_NW BOM_ROCI BOM_POCI BOM_EYE BOM_POS_METHOD BOM_PRES_METHOD NADI_LAT NADI_LON NADI_CAT NADI_WIND NADI_PRES WELLINGTON_LAT WELLINGTON_LON WELLINGTON_WIND WELLINGTON_PRES DS824_LAT DS824_LON DS824_STAGE DS824_WIND DS824_PRES TD9636_LAT TD9636_LON TD9636_STAGE TD9636_WIND TD9636_PRES TD9635_LAT TD9635_LON TD9635_WIND TD9635_PRES TD9635_ROCI NEUMANN_LAT NEUMANN_LON NEUMANN_CLASS NEUMANN_WIND NEUMANN_PRES MLC_LAT MLC_LON MLC_CLASS MLC_WIND MLC_PRES USA_GUST BOM_GUST BOM_GUST_PER REUNION_GUST REUNION_GUST_PER USA_SEAHGT USA_SEARAD_NE USA_SEARAD_SE USA_SEARAD_SW USA_SEARAD_NW STORM_SPEED STORM_DIR
1927325S08072 1928 70 SI MM NOT_NAMED 1927-11-21 06:00:00 NR -7.80000 72.0000 reunion main 1800 1800 _____O________ -1 -7.80000 72.0000 99 9.90000 3 266
1927325S08072 1928 70 SI MM NOT_NAMED 1927-11-21 09:00:00 NR -7.80822 71.8649 main 1805 1805 _____P________ -1 -7.80822 71.8649 99 3 266
1927325S08072 1928 70 SI MM NOT_NAMED 1927-11-21 12:00:00 NR -7.81683 71.7249 main 1817 1817 _____P________ -1 -7.81683 71.7249 99 3 266
1927325S08072 1928 70 SI MM NOT_NAMED 1927-11-21 15:00:00 NR -7.82625 71.5748 main 1823 1823 _____P________ -1 -7.82625 71.5748 99 3 266
1927325S08072 1928 70 SI MM NOT_NAMED 1927-11-21 18:00:00 NR -7.83692 71.4098 main 1835 1835 _____P________ -1 -7.83692 71.4098 99 3 266
1927325S08072 1928 70 SI MM NOT_NAMED 1927-11-21 21:00:00 NR -7.84923 71.2248 main 1847 1847 _____P________ -1 -7.84923 71.2248 99 4 266
1927325S08072 1928 70 SI MM NOT_NAMED 1927-11-22 00:00:00 NR -7.86360 71.0149 main 1868 1868 _____P________ -1 -7.86360 71.0149 99 4 266
1927325S08072 1928 70 SI MM NOT_NAMED 1927-11-22 03:00:00 NR -7.88040 70.7749 main 1881 1881 _____P________ -1 -7.88040 70.7749 99 5 266
1927325S08072 1928 70 SI MM NOT_NAMED 1927-11-22 06:00:00 NR -7.90000 70.5000 reunion main 1899 1899 _____O________ -1 -7.90000 70.5000 99 9.90000 6 266
1927325S08072 1928 70 SI MM NOT_NAMED 1927-11-22 09:00:00 NR -7.92256 70.1871 main 1917 1895 _____P________ -1 -7.92256 70.1871 99 7 266
1927325S08072 1928 70 SI MM NOT_NAMED 1927-11-22 12:00:00 NR -7.94743 69.8416 main 1887 1857 _____P________ -1 -7.94743 69.8416 99 7 266
1927325S08072 1928 70 SI MM NOT_NAMED 1927-11-22 15:00:00 NR -7.97378 69.4709 main 1857 1827 _____P________ -1 -7.97378 69.4709 99 8 266
1927325S08072 1928 70 SI MM NOT_NAMED 1927-11-22 18:00:00 NR -8.00078 69.0825 main 1827 1799 _____P________ -1 -8.00078 69.0825 99 8 266
1927325S08072 1928 70 SI MM NOT_NAMED 1927-11-22 21:00:00 NR -8.02765 68.6838 main 1799 1762 _____P________ -1 -8.02765 68.6838 99 8 266
1927325S08072 1928 70 SI MM NOT_NAMED 1927-11-23 00:00:00 NR -8.05363 68.2821 main 1762 1735 _____P________ -1 -8.05363 68.2821 99 8 266
1927325S08072 1928 70 SI MM NOT_NAMED 1927-11-23 03:00:00 NR -8.07798 67.8851 main 1735 1708 _____P________ -1 -8.07798 67.8851 99 8 267
1927325S08072 1928 70 SI MM NOT_NAMED 1927-11-23 06:00:00 NR -8.10000 67.5000 reunion main 1708 1688 _____O________ -1 -8.10000 67.5000 99 9.90000 7 267
1927325S08072 1928 70 SI MM NOT_NAMED 1927-11-23 09:00:00 NR -8.11491 67.1564 main 1688 1662 _____P________ -1 -8.11491 67.1564 99 7 268
1927325S08072 1928 70 SI MM NOT_NAMED 1927-11-23 12:00:00 NR -8.12757 66.8212 main 1662 1643 _____P________ -1 -8.12757 66.8212 99 7 268
1927325S08072 1928 70 SI MM NOT_NAMED 1927-11-23 15:00:00 NR -8.13877 66.4929 main 1643 1625 _____P________ -1 -8.13877 66.4929 99 6 268
1927325S08072 1928 70 SI MM NOT_NAMED 1927-11-23 18:00:00 NR -8.14929 66.1699 main 1625 1598 _____P________ -1 -8.14929 66.1699 99 6 268
1927325S08072 1928 70 SI MM NOT_NAMED 1927-11-23 21:00:00 NR -8.15990 65.8507 main 1598 1580 _____P________ -1 -8.15990 65.8507 99 6 268
1927325S08072 1928 70 SI MM NOT_NAMED 1927-11-24 00:00:00 NR -8.17138 65.5337 main 1574 1557 _____P________ -1 -8.17138 65.5337 99 6 268
1927325S08072 1928 70 SI MM NOT_NAMED 1927-11-24 03:00:00 NR -8.18449 65.2173 main 1557 1541 _____P________ -1 -8.18449 65.2173 99 6 267
1927325S08072 1928 70 SI MM NOT_NAMED 1927-11-24 06:00:00 NR -8.20000 64.9000 reunion main 1541 1525 _____O________ -1 -8.20000 64.9000 99 9.90000 6 267
1927325S08072 1928 70 SI MM NOT_NAMED 1927-11-24 09:00:00 NR -8.21834 64.5674 main 1525 1509 _____P________ -1 -8.21834 64.5674 99 7 267
1927325S08072 1928 70 SI MM NOT_NAMED 1927-11-24 12:00:00 NR -8.23861 64.2338 main 1504 1479 _____P________ -1 -8.23861 64.2338 99 7 266
1927325S08072 1928 70 SI MM NOT_NAMED 1927-11-24 15:00:00 NR -8.26079 63.9008 main 1479 1465 _____P________ -1 -8.26079 63.9008 99 7 266
1927325S08072 1928 70 SI MM NOT_NAMED 1927-11-24 18:00:00 NR -8.28486 63.5700 main 1465 1451 _____P________ -1 -8.28486 63.5700 99 7 266
1927325S08072 1928 70 SI MM NOT_NAMED 1927-11-24 21:00:00 NR -8.31081 63.2430 main 1447 1434 _____P________ -1 -8.31081 63.2430 99 6 265
1927325S08072 1928 70 SI MM NOT_NAMED 1927-11-25 00:00:00 NR -8.33865 62.9212 main 1434 1411 _____P________ -1 -8.33865 62.9212 99 6 265
1927325S08072 1928 70 SI MM NOT_NAMED 1927-11-25 03:00:00 NR -8.36838 62.6064 main 1411 1400 _____P________ -1 -8.36838 62.6064 99 6 264
1927325S08072 1928 70 SI MM NOT_NAMED 1927-11-25 06:00:00 NR -8.40000 62.3000 reunion main 1400 1389 _____O________ -1 -8.40000 62.3000 99 9.90000 6 264
1927325S08072 1928 70 SI MM NOT_NAMED 1927-11-25 09:00:00 NR -8.43655 61.9931 main 1389 1368 _____P________ -1 -8.43655 61.9931 99 6 263
1927325S08072 1928 70 SI MM NOT_NAMED 1927-11-25 12:00:00 NR -8.47574 61.6930 main 1368 1354 _____P________ -1 -8.47574 61.6930 99 6 262
1927325S08072 1928 70 SI MM NOT_NAMED 1927-11-25 15:00:00 NR -8.51639 61.4008 main 1354 1319 _____P________ -1 -8.51639 61.4008 99 6 262
1927325S08072 1928 70 SI MM NOT_NAMED 1927-11-25 18:00:00 NR -8.55731 61.1177 main 1319 1299 _____P________ -1 -8.55731 61.1177 99 6 262
1927325S08072 1928 70 SI MM NOT_NAMED 1927-11-25 21:00:00 NR -8.59731 60.8449 main 1288 1268 _____P________ -1 -8.59731 60.8449 99 5 262
1927325S08072 1928 70 SI MM NOT_NAMED 1927-11-26 00:00:00 NR -8.63521 60.5836 main 1268 1234 _____P________ -1 -8.63521 60.5836 99 5 262
1927325S08072 1928 70 SI MM NOT_NAMED 1927-11-26 03:00:00 NR -8.66984 60.3349 main 1234 1214 _____P________ -1 -8.66984 60.3349 99 5 262
1927325S08072 1928 70 SI MM NOT_NAMED 1927-11-26 06:00:00 NR -8.70000 60.1000 reunion main 1214 1194 _____O________ -1 -8.70000 60.1000 99 9.90000 5 264
1927325S08072 1928 70 SI MM NOT_NAMED 1927-11-26 09:00:00 NR -8.71964 59.8799 main 1194 1174 _____P________ -1 -8.71964 59.8799 99 4 265
1927325S08072 1928 70 SI MM NOT_NAMED 1927-11-26 12:00:00 NR -8.73490 59.6746 main 1174 1154 _____P________ -1 -8.73490 59.6746 99 4 266
1927325S08072 1928 70 SI MM NOT_NAMED 1927-11-26 15:00:00 NR -8.74696 59.4813 main 1154 1129 _____P________ -1 -8.74696 59.4813 99 4 267
1927325S08072 1928 70 SI MM NOT_NAMED 1927-11-26 18:00:00 NR -8.75699 59.2974 main 1129 1109 _____P________ -1 -8.75699 59.2974 99 4 267
1927325S08072 1928 70 SI MM NOT_NAMED 1927-11-26 21:00:00 NR -8.76615 59.1200 main 1109 1099 _____P________ -1 -8.76615 59.1200 99 3 267
1927325S08072 1928 70 SI MM NOT_NAMED 1927-11-27 00:00:00 NR -8.77560 58.9465 main 1089 1080 _____P________ -1 -8.77560 58.9465 99 3 267
1927325S08072 1928 70 SI MM NOT_NAMED 1927-11-27 03:00:00 NR -8.78650 58.7740 main 1080 1060 _____P________ -1 -8.78650 58.7740 99 3 266
1927325S08072 1928 70 SI MM NOT_NAMED 1927-11-27 06:00:00 NR -8.80000 58.6000 reunion main 1060 1040 _____O________ -1 -8.80000 58.6000 99 9.90000 3 265
1927325S08072 1928 70 SI MM NOT_NAMED 1927-11-27 09:00:00 NR -8.81697 58.4221 main 1040 1031 _____P________ -1 -8.81697 58.4221 99 4 264
1927325S08072 1928 70 SI MM NOT_NAMED 1927-11-27 12:00:00 NR -8.83719 58.2404 main 1021 1006 _____P________ -1 -8.83719 58.2404 99 4 263
1927325S08072 1928 70 SI MM NOT_NAMED 1927-11-27 15:00:00 NR -8.86020 58.0554 main 1006 987 _____P________ -1 -8.86020 58.0554 99 4 263
1927325S08072 1928 70 SI MM NOT_NAMED 1927-11-27 18:00:00 NR -8.88549 57.8677 main 987 967 _____P________ -1 -8.88549 57.8677 99 4 262
1927325S08072 1928 70 SI MM NOT_NAMED 1927-11-27 21:00:00 NR -8.91260 57.6777 main 967 948 _____P________ -1 -8.91260 57.6777 99 4 262
1927325S08072 1928 70 SI MM NOT_NAMED 1927-11-28 00:00:00 NR -8.94104 57.4861 main 948 923 _____P________ -1 -8.94104 57.4861 99 4 261
1927325S08072 1928 70 SI MM NOT_NAMED 1927-11-28 03:00:00 NR -8.97033 57.2933 main 923 904 _____P________ -1 -8.97033 57.2933 99 4 261
1927325S08072 1928 70 SI MM NOT_NAMED 1927-11-28 06:00:00 NR -9.00000 57.1000 reunion main 904 _____O________ -1 -9.00000 57.1000 99 9.90000 4 261

About IBTrACS Database

This database is a web-friendly format of International Best Track Archive for Climate Stewardship (IBTrACS), a global best track data archive curated by NOAA dating back to 1842.

Updated: 2021-12-03